KHPT/HPT METAR and TAF weather

Enter ICAO airport designator
Station Type Date Time Source
KHPT METAR 2020/09/19 01:35 UTC NOAA

KHPT 190135Z AUTO 00000KT 10SM CLR 10/06 A3031 RMK AO2


Station Type Date Time Source
KHPT Decoded METAR 2020/09/19 01:35 UTC NOAA

Station name not available
Sep 18, 2020 - 09:35 PM EDT / 2020.09.19 0135 UTC
Wind: Calm:0
Visibility: 10 mile(s):0
Sky conditions: clear
Temperature: 50 F (10 C)
Dew Point: 42 F (6 C)
Relative Humidity: 76%
Pressure (altimeter): 30.31 in. Hg (1026 hPa)
ob: KHPT 190135Z AUTO 00000KT 10SM CLR 10/06 A3031 RMK AO2
cycle: 1

Station Type Date Time Source
KHPT TAF UTC NOAA

Error!

Example: see airport list